Sheridan, WY (82801)

3:53 PM MDT on May 22, 2017 (GMT -0600)
South Sheridan | | Change Station

Elev 3770 ft 44.79 °N, 106.95 °W | Updated 4 seconds ago

Mostly Cloudy
Mostly Cloudy
59.2 °F
Feels Like 59.2 °F
N
2.5
Wind Variable Wind from WNW
Gusts 2.5 mph

Today
High -- | Low -- °F
--% Chance of Precip.
Yesterday
High -- | Low -- °F
Precip. -- in
Pressure 30.15 in
Visibility 10.0 miles
Clouds Few 4900 ft
Scattered Clouds 6000 ft
Mostly Cloudy 8000 ft
Dew Point 47 °F
Humidity 63%
Rainfall 0.08 in
Snow Depth Not available.
5:32 AM 8:37 PM
Waning Crescent, 12% visible
METAR KSHR 222053Z AUTO 32016KT 10SM FEW049 SCT060 BKN080 14/04 A3018 RMK AO2 SLP209 60001 T01390039 58008
Pressure 30.15 in
Visibility 10.0 miles
Clouds Few 4900 ft
Scattered Clouds 6000 ft
Mostly Cloudy 8000 ft
Dew Point 47 °F
Humidity 63%
Rainfall 0.08 in
Snow Depth Not available.
5:32 AM 8:37 PM
Waning Crescent, 12% visible
METAR KSHR 222053Z AUTO 32016KT 10SM FEW049 SCT060 BKN080 14/04 A3018 RMK AO2 SLP209 60001 T01390039 58008

Get Severe Weather Alerts

Thanks for signing up!

Be on the lookout for a verification email in your inbox.

You'll start receiving the daily forecast at 6 AM.

×

10-Day Weather Forecast

Almanac

Astronomy

May. 22, 2017 Rise Set
Actual Time
Civil Twilight
Nautical Twilight
Astronomical Twilight
Moon
Length of Visible Light
Length of Day
Tomorrow will be .
, % of the Moon is Illuminated

Today's Extremes

State Highs State Lows

Community

WunderPhotos

Category 6

Welcome to Category 6. This is the collective home for Weather Underground's featured writeups by Dr. Jeff Masters (right), Bob Henson (left), Chris Burt, and other regular contributors.

Nearby

Air Quality

  Air Quality AQ Index Pollutant
Not available.

Snow Depth

Station Depth Elevation

Earthquake Activity

City Distance Mag. Time & Date
Minimum magnitude displayed is 2.5.

Coastal Water Temperatures

Place Temperature

Stations

Nearby Weather Stations

Station Location Temp. Windchill Dew Point Humidity Wind Precip. Elev Updated Type
                   

Watches & Warnings

There are currently no watches in effect.